Sioux Lookout Airport
CYXL : now visible

Airfield :











YOU CAN JOIN US ON...

 
LOGIN :

Register | Disclaimer

   EN    FR    IT 

 









Legend :    VFR   Marginal VFR   IFR   Intensive IFR   Very Intensive IFR
Visi :
Ceiling :
>= 8 km
>= 3000ft
5 to 8 km
1000 to 3000 ft
1500m to 5 km
500 to 1000 ft
800 to 1500m
200 to 500 ft
< 800m
< 200 ft
Symbols :   Thunderstorms  Fog  Heavy snow  Heavy precipitations  Wind > 20 kt






- Airport Elevation : 1258 ft
- IATA code : YXL


CYXL - Sioux Lookout

CURRENT METAR :
  • 161800Z 20007KT 15SM BKN013 OVC018 17/15 A2968 RMK SC7SC1 SLP058 DENSITY ALT 2100FT

EXPIRED METARs :
  • 161700Z 23005KT 15SM FEW011 BKN015 OVC100 17/15 A2970 RMK CU1CU6AC1 SLP062 DENSITY ALT 2100FT
  • 161600Z 22005KT 15SM FEW012 OVC017 16/14 A2970 RMK CF1SC8 CF TR SLP064 DENSITY ALT 2000FT

TAF TAF CYXL
Valid from the 16 at 14:00 until the 17 at 02:00 UTC


161339Z 1614/1702 20006KT P6SM SCT060 BKN120
TEMPO 1614/1616 BKN020 BKN060
FM161600 20012KT P6SM SCT020 BKN040
TEMPO 1616/1619 5SM -SHRA BR BKN020
FM161900 22012KT P6SM -SHRA OVC030
TEMPO 1619/1623 4SM SHRA BR OVC020
PROB40 1619/1623 VRB20G35KT 1SM +TSRA BR SCT008 OVC015CB
FM162300 33010KT P6SM -SHRA OVC020 RMK NXT FCST BY 162000Z
CZWG FIR / North America



MET'MAP, your aeronautical weather chart ! - Copyright ORBIFLY December 2007 - Disclaimer

ORBIFLY MET'MAP TEAM :

Programming & Development : Alexandra Zaïnal
Concept & original design : Baudouin d'Aumeries
Assistance for programming : Marc-Olivier Méhu
Technical & hardware support : Manuel Goepfert

Contact : metmap@orbifly.com




SOURCES & CREDITS :

   NOAA       Earth
Advisory